createdAt,value
2022-12-03T00:02:25.160Z,99119.00
2022-12-03T00:04:52.424Z,99125.00
2022-12-03T00:07:19.400Z,99125.00
2022-12-03T00:09:46.189Z,99128.00
2022-12-03T00:12:13.002Z,99126.00
2022-12-03T00:14:44.370Z,99129.00
2022-12-03T00:17:11.852Z,99131.00
2022-12-03T00:19:38.691Z,99131.00
2022-12-03T00:22:05.581Z,99124.00
2022-12-03T00:24:32.507Z,99124.00
2022-12-03T00:26:59.339Z,99121.00
2022-12-03T00:29:26.258Z,99124.00
2022-12-03T00:31:53.051Z,99121.00
2022-12-03T00:34:19.956Z,99124.00
2022-12-03T00:36:46.916Z,99118.00
2022-12-03T00:39:13.806Z,99128.00
2022-12-03T00:41:40.647Z,99123.00
2022-12-03T00:44:07.478Z,99126.00
2022-12-03T00:46:34.429Z,99124.00
2022-12-03T00:49:01.439Z,99117.00
2022-12-03T00:51:28.308Z,99120.00
2022-12-03T00:53:55.126Z,99122.00
2022-12-03T00:56:21.980Z,99124.00
2022-12-03T00:58:48.881Z,99127.00
2022-12-03T01:01:15.787Z,99122.00
2022-12-03T01:03:42.617Z,99120.00
2022-12-03T01:06:09.605Z,99131.00
2022-12-03T01:08:36.585Z,99134.00
2022-12-03T01:11:03.746Z,99133.00
2022-12-03T01:13:30.671Z,99135.00
2022-12-03T01:15:57.574Z,99134.00
2022-12-03T01:18:24.434Z,99138.00
2022-12-03T01:20:51.224Z,99131.00
2022-12-03T01:23:18.086Z,99133.00
2022-12-03T01:25:44.940Z,99141.00
2022-12-03T01:28:11.790Z,99142.00
2022-12-03T01:30:58.601Z,99129.00
2022-12-03T01:33:25.460Z,99135.00
2022-12-03T01:35:52.439Z,99132.00
2022-12-03T01:38:19.479Z,99139.00
2022-12-03T01:40:46.398Z,99131.00
2022-12-03T01:43:13.242Z,99122.00
2022-12-03T01:45:40.088Z,99127.00
2022-12-03T01:48:08.742Z,99126.00
2022-12-03T01:50:35.718Z,99124.00
2022-12-03T01:53:04.949Z,99132.00
2022-12-03T01:55:31.929Z,99137.00
2022-12-03T01:58:01.823Z,99128.00
2022-12-03T02:00:29.669Z,99124.00
2022-12-03T02:03:07.298Z,99130.00
2022-12-03T02:05:34.546Z,99120.00
2022-12-03T02:08:01.659Z,99123.00
2022-12-03T02:10:34.259Z,99119.00
2022-12-03T02:13:08.777Z,99109.00
2022-12-03T02:15:39.178Z,99116.00
2022-12-03T02:18:08.242Z,99113.00
2022-12-03T02:21:05.929Z,99111.00
2022-12-03T02:23:51.888Z,99115.00
2022-12-03T02:26:19.224Z,99123.00
2022-12-03T02:28:46.606Z,99121.00
2022-12-03T02:31:13.558Z,99130.00
2022-12-03T02:33:40.481Z,99127.00
2022-12-03T02:36:07.981Z,99131.00
2022-12-03T02:38:35.932Z,99126.00
2022-12-03T02:41:09.202Z,99123.00
2022-12-03T02:43:36.699Z,99138.00
2022-12-03T02:46:06.999Z,99136.00
2022-12-03T02:48:38.269Z,99132.00
2022-12-03T02:51:11.213Z,99129.00
2022-12-03T02:53:47.237Z,99129.00
2022-12-03T02:56:18.529Z,99130.00
2022-12-03T02:58:49.693Z,99125.00
2022-12-03T03:01:17.467Z,99137.00
2022-12-03T03:03:47.191Z,99130.00
2022-12-03T03:06:16.017Z,99130.00
2022-12-03T03:08:44.099Z,99127.00
2022-12-03T03:11:11.901Z,99126.00
2022-12-03T03:13:39.800Z,99127.00
2022-12-03T03:16:08.762Z,99134.00
2022-12-03T03:18:36.805Z,99139.00
2022-12-03T03:21:04.838Z,99127.00
2022-12-03T03:23:31.748Z,99127.00
2022-12-03T03:26:13.259Z,99131.00
2022-12-03T03:28:46.404Z,99129.00
2022-12-03T03:31:17.429Z,99121.00
2022-12-03T03:33:48.037Z,99123.00
2022-12-03T03:36:15.800Z,99124.00
2022-12-03T03:38:43.754Z,99128.00
2022-12-03T03:41:12.650Z,99133.00
2022-12-03T03:43:42.551Z,99133.00
2022-12-03T03:46:11.068Z,99143.00
2022-12-03T03:48:40.048Z,99140.00
2022-12-03T03:51:09.571Z,99143.00
2022-12-03T03:53:48.866Z,99134.00
2022-12-03T03:56:18.990Z,99140.00
2022-12-03T03:58:45.938Z,99136.00
2022-12-03T04:01:14.637Z,99141.00
2022-12-03T04:03:41.821Z,99135.00
2022-12-03T04:06:10.366Z,99124.00
2022-12-03T04:08:37.233Z,99119.00
2022-12-03T04:11:22.944Z,99115.00
2022-12-03T04:13:49.826Z,99100.00
2022-12-03T04:16:16.848Z,99112.00
2022-12-03T04:18:43.845Z,99110.00
2022-12-03T04:21:38.926Z,99118.00
2022-12-03T04:24:07.953Z,99109.00
2022-12-03T04:26:54.045Z,99108.00
2022-12-03T04:29:21.515Z,99104.00
2022-12-03T04:32:06.996Z,99108.00
2022-12-03T04:34:53.158Z,99100.00
2022-12-03T04:37:20.441Z,99087.00
2022-12-03T04:39:47.546Z,99090.00
2022-12-03T04:42:14.551Z,99083.00
2022-12-03T04:44:41.428Z,99082.00
2022-12-03T04:47:12.867Z,99082.00
2022-12-03T04:49:48.544Z,99081.00
2022-12-03T04:52:19.438Z,99075.00
2022-12-03T04:54:46.600Z,99081.00
2022-12-03T04:57:13.521Z,99081.00
2022-12-03T04:59:40.833Z,99081.00
2022-12-03T05:02:08.142Z,99073.00
2022-12-03T05:04:35.186Z,99082.00
2022-12-03T05:07:02.380Z,99089.00
2022-12-03T05:09:29.233Z,99084.00
2022-12-03T05:11:56.044Z,99093.00
2022-12-03T05:14:22.945Z,99091.00
2022-12-03T05:16:49.835Z,99088.00
2022-12-03T05:19:16.880Z,99087.00
2022-12-03T05:21:43.817Z,99086.00
2022-12-03T05:24:10.734Z,99091.00
2022-12-03T05:26:37.559Z,99093.00
2022-12-03T05:29:04.422Z,99094.00
2022-12-03T05:31:31.449Z,99089.00
2022-12-03T05:33:59.464Z,99092.00
2022-12-03T05:36:26.330Z,99089.00
2022-12-03T05:38:53.117Z,99093.00
2022-12-03T05:41:38.282Z,99088.00
2022-12-03T05:44:05.152Z,99081.00
2022-12-03T05:46:32.876Z,99077.00
2022-12-03T05:48:59.840Z,99086.00
2022-12-03T05:51:26.623Z,99076.00
2022-12-03T05:53:53.495Z,99075.00
2022-12-03T05:56:20.367Z,99075.00
2022-12-03T05:58:47.261Z,99078.00
2022-12-03T06:01:14.068Z,99089.00
2022-12-03T06:03:41.003Z,99110.00
2022-12-03T06:06:08.005Z,99112.00
2022-12-03T06:08:35.832Z,99114.00
2022-12-03T06:11:02.697Z,99132.00
2022-12-03T06:13:29.579Z,99128.00
2022-12-03T06:15:56.408Z,99128.00
2022-12-03T06:18:23.302Z,99130.00
2022-12-03T06:20:50.167Z,99131.00
2022-12-03T06:23:17.023Z,99127.00
2022-12-03T06:25:43.865Z,99134.00
2022-12-03T06:28:10.630Z,99129.00
2022-12-03T06:30:37.453Z,99129.00
2022-12-03T06:33:04.398Z,99119.00
2022-12-03T06:35:32.078Z,99107.00
2022-12-03T06:37:58.940Z,99111.00
2022-12-03T06:40:25.900Z,99119.00
2022-12-03T06:42:53.126Z,99119.00
2022-12-03T06:45:20.061Z,99118.00
2022-12-03T06:47:47.126Z,99129.00
2022-12-03T06:50:14.050Z,99126.00
2022-12-03T06:52:41.107Z,99125.00
2022-12-03T06:55:08.763Z,99133.00
2022-12-03T06:57:35.533Z,99130.00
2022-12-03T07:00:03.509Z,99135.00
2022-12-03T07:02:30.440Z,99136.00
2022-12-03T07:04:57.589Z,99141.00
2022-12-03T07:07:24.611Z,99130.00
2022-12-03T07:09:51.465Z,99140.00
2022-12-03T07:12:18.296Z,99136.00
2022-12-03T07:14:45.737Z,99137.00
2022-12-03T07:17:12.661Z,99133.00
2022-12-03T07:19:39.627Z,99133.00
2022-12-03T07:22:06.563Z,99126.00
2022-12-03T07:24:33.593Z,99124.00
2022-12-03T07:27:00.425Z,99119.00
2022-12-03T07:29:27.224Z,99118.00
2022-12-03T07:32:09.118Z,99120.00
2022-12-03T07:34:35.962Z,99111.00
2022-12-03T07:37:02.752Z,99125.00
2022-12-03T07:39:29.823Z,99121.00
2022-12-03T07:41:56.626Z,99118.00
2022-12-03T07:44:23.460Z,99116.00
2022-12-03T07:46:50.304Z,99119.00
2022-12-03T07:49:17.289Z,99112.00
2022-12-03T07:51:53.255Z,99105.00
2022-12-03T07:54:24.567Z,99115.00
2022-12-03T07:56:56.564Z,99110.00
2022-12-03T07:59:26.562Z,99112.00
2022-12-03T08:01:53.406Z,99114.00
2022-12-03T08:04:21.256Z,99101.00
2022-12-03T08:06:48.613Z,99097.00
2022-12-03T08:09:16.419Z,99096.00
2022-12-03T08:11:47.246Z,99101.00
2022-12-03T08:14:20.106Z,99094.00
2022-12-03T08:16:48.015Z,99100.00
2022-12-03T08:19:17.765Z,99105.00
2022-12-03T08:21:45.173Z,99104.00
2022-12-03T08:24:21.433Z,99109.00
2022-12-03T08:26:49.578Z,99104.00
2022-12-03T08:29:20.065Z,99099.00
2022-12-03T08:31:54.929Z,99090.00
2022-12-03T08:34:28.734Z,99101.00
2022-12-03T08:37:05.996Z,99099.00
2022-12-03T08:39:45.360Z,99101.00
2022-12-03T08:42:43.036Z,99101.00
2022-12-03T08:45:29.126Z,99102.00
2022-12-03T08:48:02.994Z,99099.00
2022-12-03T08:50:42.089Z,99097.00
2022-12-03T08:53:33.565Z,99099.00
2022-12-03T08:56:15.411Z,99098.00
2022-12-03T08:58:49.179Z,99099.00
2022-12-03T09:01:30.746Z,99099.00
2022-12-03T09:04:20.398Z,99089.00
2022-12-03T09:06:47.297Z,99081.00
2022-12-03T09:09:15.613Z,99084.00
2022-12-03T09:11:45.303Z,99078.00
2022-12-03T09:14:18.317Z,99082.00
2022-12-03T09:16:45.745Z,99074.00
2022-12-03T09:19:12.631Z,99094.00
2022-12-03T09:21:39.473Z,99086.00
2022-12-03T09:24:06.563Z,99091.00
2022-12-03T09:26:33.466Z,99092.00
2022-12-03T09:29:00.304Z,99090.00
2022-12-03T09:31:27.250Z,99088.00
2022-12-03T09:33:54.117Z,99095.00
2022-12-03T09:36:21.033Z,99098.00
2022-12-03T09:38:48.419Z,99090.00
2022-12-03T09:41:15.691Z,99083.00
2022-12-03T09:44:03.159Z,99086.00
2022-12-03T09:46:30.711Z,99082.00
2022-12-03T09:48:57.804Z,99079.00
2022-12-03T09:51:34.375Z,99086.00
2022-12-03T09:54:05.439Z,99085.00
2022-12-03T09:56:35.805Z,99078.00
2022-12-03T09:59:06.752Z,99079.00
2022-12-03T10:01:33.659Z,99072.00
2022-12-03T10:04:01.794Z,99068.00
2022-12-03T10:06:30.542Z,99062.00
2022-12-03T10:08:59.902Z,99061.00
2022-12-03T10:11:28.940Z,99057.00
2022-12-03T10:13:58.254Z,99058.00
2022-12-03T10:16:26.606Z,99056.00
2022-12-03T10:18:56.741Z,99058.00
2022-12-03T10:21:32.252Z,99055.00
2022-12-03T10:24:21.521Z,99048.00
2022-12-03T10:26:51.514Z,99040.00
2022-12-03T10:29:34.236Z,99041.00
2022-12-03T10:32:12.063Z,99035.00
2022-12-03T10:34:41.538Z,99029.00
2022-12-03T10:37:22.508Z,99025.00
2022-12-03T10:40:21.173Z,99025.00
2022-12-03T10:42:47.975Z,99031.00
2022-12-03T10:45:24.847Z,99019.00
2022-12-03T10:48:14.910Z,99011.00
2022-12-03T10:51:13.425Z,99016.00
2022-12-03T10:53:41.456Z,99009.00
2022-12-03T10:56:17.737Z,99003.00
2022-12-03T10:58:44.746Z,98999.00
2022-12-03T11:01:25.065Z,98997.00
2022-12-03T11:03:53.876Z,98997.00
2022-12-03T11:06:23.022Z,98998.00
2022-12-03T11:08:57.776Z,98988.00
2022-12-03T11:11:31.150Z,98980.00
2022-12-03T11:14:01.343Z,98983.00
2022-12-03T11:16:40.208Z,98983.00
2022-12-03T11:19:13.030Z,98976.00
2022-12-03T11:22:37.706Z,98977.00
2022-12-03T11:25:29.394Z,98971.00
2022-12-03T11:28:14.641Z,98972.00
2022-12-03T11:31:01.255Z,98975.00
2022-12-03T11:33:38.142Z,98974.00
2022-12-03T11:36:05.218Z,98973.00
2022-12-03T11:38:37.837Z,98968.00
2022-12-03T11:41:19.050Z,98971.00
2022-12-03T11:43:57.721Z,98968.00
2022-12-03T11:46:36.886Z,98955.00
2022-12-03T11:49:24.042Z,98964.00
2022-12-03T11:51:51.497Z,98962.00
2022-12-03T11:54:22.818Z,98957.00
2022-12-03T11:56:51.837Z,98952.00
2022-12-03T11:59:19.457Z,98939.00
2022-12-03T12:01:46.942Z,98949.00
2022-12-03T12:04:37.687Z,98940.00
2022-12-03T12:07:04.629Z,98938.00
2022-12-03T12:09:55.713Z,98945.00
2022-12-03T12:12:38.363Z,98936.00
2022-12-03T12:15:40.331Z,98933.00
2022-12-03T12:18:39.899Z,98928.00
2022-12-03T12:21:47.451Z,98926.00
2022-12-03T12:24:43.567Z,98921.00
2022-12-03T12:27:21.769Z,98916.00
2022-12-03T12:30:12.670Z,98913.00
2022-12-03T12:32:48.374Z,98911.00
2022-12-03T12:35:20.301Z,98911.00
2022-12-03T12:38:02.447Z,98907.00
2022-12-03T12:40:33.487Z,98902.00
2022-12-03T12:43:13.233Z,98901.00
2022-12-03T12:45:43.838Z,98893.00
2022-12-03T12:48:20.863Z,98899.00
2022-12-03T12:50:53.070Z,98900.00
2022-12-03T12:53:33.409Z,98895.00
2022-12-03T12:56:28.032Z,98891.00
2022-12-03T12:58:59.261Z,98892.00
2022-12-03T13:01:32.110Z,98889.00
2022-12-03T13:03:59.690Z,98893.00
2022-12-03T13:06:30.015Z,98896.00
2022-12-03T13:08:58.746Z,98887.00
2022-12-03T13:11:25.509Z,98895.00
2022-12-03T13:13:52.729Z,98885.00
2022-12-03T13:16:32.325Z,98878.00
2022-12-03T13:19:01.534Z,98884.00
2022-12-03T13:21:44.796Z,98874.00
2022-12-03T13:24:47.654Z,98879.00
2022-12-03T13:27:17.339Z,98871.00
2022-12-03T13:30:15.627Z,98879.00
2022-12-03T13:32:43.771Z,98879.00
2022-12-03T13:35:30.161Z,98879.00
2022-12-03T13:37:59.209Z,98878.00
2022-12-03T13:40:31.469Z,98882.00
2022-12-03T13:42:59.383Z,98878.00
2022-12-03T13:45:43.519Z,98864.00
2022-12-03T13:48:29.294Z,98858.00
2022-12-03T13:50:59.127Z,98877.00
2022-12-03T13:53:32.220Z,98873.00
2022-12-03T13:56:31.062Z,98878.00
2022-12-03T13:59:01.248Z,98867.00
2022-12-03T14:01:28.973Z,98863.00
2022-12-03T14:03:56.816Z,98863.00
2022-12-03T14:06:23.644Z,98856.00
2022-12-03T14:08:51.390Z,98846.00
2022-12-03T14:11:37.235Z,98847.00
2022-12-03T14:14:04.119Z,98852.00
2022-12-03T14:16:31.156Z,98850.00
2022-12-03T14:18:57.970Z,98855.00
2022-12-03T14:21:24.757Z,98852.00
2022-12-03T14:23:51.576Z,98856.00
2022-12-03T14:26:18.478Z,98858.00
2022-12-03T14:28:45.284Z,98852.00
2022-12-03T14:31:12.109Z,98861.00
2022-12-03T14:33:38.910Z,98862.00
2022-12-03T14:36:06.225Z,98873.00
2022-12-03T14:38:33.031Z,98873.00
2022-12-03T14:40:59.791Z,98868.00
2022-12-03T14:43:26.605Z,98870.00
2022-12-03T14:45:53.480Z,98872.00
2022-12-03T14:48:20.311Z,98872.00
2022-12-03T14:50:47.141Z,98880.00
2022-12-03T14:53:13.997Z,98877.00
2022-12-03T14:55:40.830Z,98886.00
2022-12-03T14:58:07.726Z,98879.00
2022-12-03T15:00:34.658Z,98882.00
2022-12-03T15:03:01.532Z,98880.00
2022-12-03T15:05:29.195Z,98881.00
2022-12-03T15:07:56.464Z,98883.00
2022-12-03T15:10:23.409Z,98867.00
2022-12-03T15:12:50.291Z,98872.00
2022-12-03T15:15:17.080Z,98877.00
2022-12-03T15:17:45.777Z,98866.00
2022-12-03T15:20:13.204Z,98873.00
2022-12-03T15:22:40.060Z,98879.00
2022-12-03T15:25:07.882Z,98877.00
2022-12-03T15:27:34.746Z,98870.00
2022-12-03T15:30:01.661Z,98875.00
2022-12-03T15:32:28.629Z,98876.00
2022-12-03T15:34:55.454Z,98875.00
2022-12-03T15:37:22.366Z,98870.00
2022-12-03T15:39:49.353Z,98867.00
2022-12-03T15:42:16.235Z,98868.00
2022-12-03T15:44:43.046Z,98871.00
2022-12-03T15:47:09.903Z,98868.00
2022-12-03T15:49:36.715Z,98856.00
2022-12-03T15:52:04.494Z,98865.00
2022-12-03T15:54:31.348Z,98861.00
2022-12-03T15:56:58.111Z,98853.00
2022-12-03T15:59:25.579Z,98853.00
2022-12-03T16:01:52.518Z,98855.00
2022-12-03T16:04:19.358Z,98857.00
2022-12-03T16:06:46.228Z,98847.00
2022-12-03T16:09:13.008Z,98853.00
2022-12-03T16:11:39.861Z,98836.00
2022-12-03T16:14:06.637Z,98827.00
2022-12-03T16:16:33.494Z,98833.00
2022-12-03T16:19:00.451Z,98829.00
2022-12-03T16:21:27.559Z,98839.00
2022-12-03T16:23:55.221Z,98841.00
2022-12-03T16:26:22.522Z,98837.00
2022-12-03T16:28:49.534Z,98833.00
2022-12-03T16:31:16.491Z,98843.00
2022-12-03T16:33:43.346Z,98839.00
2022-12-03T16:36:10.320Z,98839.00
2022-12-03T16:38:37.148Z,98837.00
2022-12-03T16:41:04.049Z,98835.00
2022-12-03T16:43:33.993Z,98825.00
2022-12-03T16:46:20.944Z,98821.00
2022-12-03T16:48:48.450Z,98825.00
2022-12-03T16:51:16.187Z,98827.00
2022-12-03T16:53:43.043Z,98825.00
2022-12-03T16:56:09.835Z,98827.00
2022-12-03T16:58:36.735Z,98826.00
2022-12-03T17:01:04.083Z,98818.00
2022-12-03T17:03:34.064Z,98821.00
2022-12-03T17:06:01.945Z,98826.00
2022-12-03T17:08:29.044Z,98829.00
2022-12-03T17:10:56.497Z,98825.00
2022-12-03T17:17:19.181Z,98827.00
2022-12-03T17:19:46.169Z,98822.00
2022-12-03T17:22:13.125Z,98819.00
2022-12-03T17:24:40.020Z,98823.00
2022-12-03T17:27:07.959Z,98816.00
2022-12-03T17:29:34.936Z,98828.00
2022-12-03T17:32:01.978Z,98826.00
2022-12-03T17:34:29.165Z,98818.00
2022-12-03T17:36:56.216Z,98831.00
2022-12-03T17:39:23.158Z,98825.00
2022-12-03T17:41:49.962Z,98827.00
2022-12-03T17:44:21.052Z,98836.00
2022-12-03T17:46:51.310Z,98828.00
2022-12-03T17:49:18.226Z,98822.00
2022-12-03T17:51:45.073Z,98822.00
2022-12-03T17:54:11.937Z,98827.00
2022-12-03T17:56:39.321Z,98810.00
2022-12-03T17:59:06.222Z,98818.00
2022-12-03T18:01:33.134Z,98816.00
2022-12-03T18:04:00.012Z,98819.00
2022-12-03T18:06:26.953Z,98811.00
2022-12-03T18:08:54.046Z,98801.00
2022-12-03T18:11:21.232Z,98812.00
2022-12-03T18:13:48.049Z,98811.00
2022-12-03T18:16:15.996Z,98808.00
2022-12-03T18:18:43.048Z,98803.00
2022-12-03T18:21:09.981Z,98809.00
2022-12-03T18:23:36.953Z,98816.00
2022-12-03T18:26:04.704Z,98815.00
2022-12-03T18:28:31.748Z,98817.00
2022-12-03T18:30:59.816Z,98810.00
2022-12-03T18:33:27.268Z,98814.00
2022-12-03T18:35:57.698Z,98817.00
2022-12-03T18:38:30.450Z,98813.00
2022-12-03T18:40:57.803Z,98801.00
2022-12-03T18:43:30.710Z,98807.00
2022-12-03T18:45:57.515Z,98804.00
2022-12-03T18:48:25.302Z,98810.00
2022-12-03T18:50:52.182Z,98803.00
2022-12-03T18:53:19.621Z,98804.00
2022-12-03T18:55:48.369Z,98801.00
2022-12-03T18:58:15.144Z,98802.00
2022-12-03T19:00:42.578Z,98800.00
2022-12-03T19:03:10.468Z,98805.00
2022-12-03T19:05:37.351Z,98814.00
2022-12-03T19:08:12.493Z,98801.00
2022-12-03T19:10:39.606Z,98806.00
2022-12-03T19:13:06.456Z,98795.00
2022-12-03T19:15:37.585Z,98807.00
2022-12-03T19:18:07.360Z,98796.00
2022-12-03T19:20:34.785Z,98786.00
2022-12-03T19:23:01.796Z,98786.00
2022-12-03T19:25:28.712Z,98786.00
2022-12-03T19:27:56.969Z,98798.00
2022-12-03T19:30:23.903Z,98803.00
2022-12-03T19:32:51.660Z,98808.00
2022-12-03T19:35:21.262Z,98816.00
2022-12-03T19:37:49.765Z,98808.00
2022-12-03T19:40:17.306Z,98804.00
2022-12-03T19:42:44.245Z,98812.00
2022-12-03T19:45:11.494Z,98803.00
2022-12-03T19:47:38.683Z,98810.00
2022-12-03T19:50:06.590Z,98802.00
2022-12-03T19:52:36.358Z,98816.00
2022-12-03T19:55:03.778Z,98803.00
2022-12-03T19:57:30.565Z,98806.00
2022-12-03T19:59:57.650Z,98813.00
2022-12-03T20:02:24.765Z,98816.00
2022-12-03T20:04:51.739Z,98807.00
2022-12-03T20:07:18.651Z,98794.00
2022-12-03T20:09:45.489Z,98806.00
2022-12-03T20:12:12.268Z,98807.00
2022-12-03T20:14:39.080Z,98807.00
2022-12-03T20:17:06.023Z,98810.00
2022-12-03T20:19:32.873Z,98794.00
2022-12-03T20:22:02.719Z,98808.00
2022-12-03T20:24:29.941Z,98805.00
2022-12-03T20:26:56.752Z,98810.00
2022-12-03T20:29:23.572Z,98803.00
2022-12-03T20:31:50.395Z,98801.00
2022-12-03T20:34:17.216Z,98802.00
2022-12-03T20:36:44.360Z,98801.00
2022-12-03T20:39:11.243Z,98797.00
2022-12-03T20:41:38.174Z,98796.00
2022-12-03T20:44:07.374Z,98796.00
2022-12-03T20:46:34.415Z,98793.00
2022-12-03T20:49:01.352Z,98794.00
2022-12-03T20:51:31.024Z,98792.00
2022-12-03T20:54:00.198Z,98799.00
2022-12-03T20:56:34.782Z,98787.00
2022-12-03T20:59:08.192Z,98787.00
2022-12-03T21:01:36.071Z,98788.00
2022-12-03T21:04:04.630Z,98788.00
2022-12-03T21:06:34.204Z,98782.00
2022-12-03T21:09:01.834Z,98782.00
2022-12-03T21:11:31.258Z,98783.00
2022-12-03T21:14:00.034Z,98794.00
2022-12-03T21:17:05.786Z,98804.00
2022-12-03T21:19:20.313Z,98795.00
2022-12-03T21:21:47.340Z,98783.00
2022-12-03T21:24:14.476Z,98776.00
2022-12-03T21:26:41.656Z,98781.00
2022-12-03T21:29:08.866Z,98794.00
2022-12-03T21:31:37.397Z,98793.00
2022-12-03T21:34:05.091Z,98785.00
2022-12-03T21:36:32.372Z,98793.00
2022-12-03T21:38:59.661Z,98791.00
2022-12-03T21:41:26.584Z,98798.00
2022-12-03T21:43:53.534Z,98796.00
2022-12-03T21:47:10.773Z,98791.00
2022-12-03T21:49:07.559Z,98795.00
2022-12-03T21:51:34.536Z,98792.00
2022-12-03T21:54:01.355Z,98788.00
2022-12-03T21:56:30.749Z,98804.00
2022-12-03T21:58:57.742Z,98794.00
2022-12-03T22:01:25.173Z,98780.00
2022-12-03T22:03:52.336Z,98774.00
2022-12-03T22:06:20.143Z,98782.00
2022-12-03T22:08:47.828Z,98770.00
2022-12-03T22:11:21.144Z,98759.00
2022-12-03T22:13:48.565Z,98754.00
2022-12-03T22:16:19.064Z,98756.00
2022-12-03T22:18:46.200Z,98772.00
2022-12-03T22:21:19.731Z,98760.00
2022-12-03T22:23:46.993Z,98766.00
2022-12-03T22:26:17.671Z,98751.00
2022-12-03T22:28:47.443Z,98751.00
2022-12-03T22:31:16.146Z,98757.00
2022-12-03T22:33:45.577Z,98762.00
2022-12-03T22:36:20.119Z,98758.00
2022-12-03T22:38:49.377Z,98747.00
2022-12-03T22:41:17.336Z,98758.00
2022-12-03T22:43:45.969Z,98772.00
2022-12-03T22:46:13.519Z,98773.00
2022-12-03T22:48:41.832Z,98770.00
2022-12-03T22:51:19.752Z,98767.00
2022-12-03T22:53:47.621Z,98764.00
2022-12-03T22:56:14.708Z,98774.00
2022-12-03T22:58:41.603Z,98767.00
2022-12-03T23:01:09.017Z,98780.00
2022-12-03T23:03:37.146Z,98770.00
2022-12-03T23:06:11.286Z,98781.00
2022-12-03T23:08:38.729Z,98771.00
2022-12-03T23:11:06.409Z,98776.00
2022-12-03T23:13:33.306Z,98757.00
2022-12-03T23:16:00.220Z,98757.00
2022-12-03T23:18:27.513Z,98757.00
2022-12-03T23:20:56.851Z,98769.00
2022-12-03T23:23:26.970Z,98761.00
2022-12-03T23:26:07.803Z,98769.00
2022-12-03T23:28:38.351Z,98760.00
2022-12-03T23:31:14.034Z,98772.00
2022-12-03T23:33:40.848Z,98763.00
2022-12-03T23:36:08.289Z,98770.00
2022-12-03T23:38:35.175Z,98767.00
2022-12-03T23:41:07.352Z,98758.00
2022-12-03T23:43:34.415Z,98764.00
2022-12-03T23:46:20.169Z,98746.00
2022-12-03T23:48:47.584Z,98748.00
2022-12-03T23:51:19.128Z,98742.00
2022-12-03T23:53:47.079Z,98750.00
2022-12-03T23:56:25.288Z,98755.00
2022-12-03T23:58:52.074Z,98748.00
